Accueil
METAR-TAF:

METAR-TAF

Aéroports :

Aéroport de Shannon

Fredericksburg, Virginie, États-Unis

latitude: 38-16N, longitude: 077-27W, altitude: 26 m

Observation

Le bulletin a été fait il y a 11 minutes, à 19:55 UTC
Vent 4 kt de nord/nord-ouest
Température 34°C
Humidité 44%
Pression 1008 hPa
Visibilité: 16.1 km
Nuages épars à une hauteur de 5000 ft
Nuages épars à une hauteur de 7000 ft

METAR: KEZF 101955Z AUTO 33004KT 10SM SCT050 SCT070 34/20 A2977 RMK AO2 T03400204

Heure: 16:06 (20:06 UTC)


TAF: absent

Observations et prévisions météorologiques de plus de 4000 aéroports (messages METAR et TAF).

Les stations disponibles sont représentées par des disques jaunes et rouges sur la carte.

Passer la souris dessus pour voir le nom de la station.

Cliquer dessus pour voir les observations et prévisions météorologiques.

Pour changer de carte: cliquez sur les boutons verts avec une croix noire pour zoomer, sur le bouton vert avec un tiret pour effectuer un zoom arrière, ou sur les flèches vertes pour les cartes adjacentes.


METAR-TAF: